Date,TemperatureHighF,TemperatureAvgF,TemperatureLowF,DewpointHighF,DewpointAvgF,DewpointLowF,HumidityHigh,HumidityAvg,HumidityLow,PressureMaxIn,PressureMinIn,WindSpeedMaxMPH,WindSpeedAvgMPH,GustSpeedMaxMPH,PrecipitationSumIn
2014-1-1,53.6,47.9,44.2,44.8,40.9,37.4,84,77,69,30.12,30.00,1,0,3,0.00
2014-1-2,52.9,51.9,44.2,49.5,46.1,37.8,89,81,68,30.09,30.00,8,2,17,0.00
2014-1-3,57.7,55.2,52.7,51.3,47.7,44.2,89,76,66,30.15,30.03,6,3,12,0.03
2014-1-4,57.6,56.2,53.8,55.6,54.1,48.4,97,93,82,30.15,29.91,13,5,21,0.13
2014-1-5,56.1,50.6,45.0,55.2,48.2,41.5,97,92,81,29.94,29.70,15,5,23,1.27
2014-1-6,56.8,50.3,45.3,43.9,41.0,36.5,86,71,56,30.17,29.79,4,0,8,0.00
2014-1-7,55.4,51.7,47.8,46.9,44.8,36.7,91,78,65,30.29,30.15,4,1,5,0.00
2014-1-8,53.6,51.1,48.0,48.0,45.1,43.0,90,80,75,30.32,30.23,6,2,8,0.00
2014-1-9,53.1,50.7,48.7,46.9,45.5,43.3,87,83,76,30.23,30.15,2,0,4,0.00
2014-1-10,52.3,51.0,49.3,47.1,45.7,44.2,85,82,81,30.17,30.09,2,0,4,0.00
2014-1-11,54.1,51.4,49.1,47.7,45.6,44.2,86,81,76,30.17,30.12,2,0,4,0.00
2014-1-12,57.6,51.6,47.7,48.6,45.0,41.9,87,78,68,30.15,30.09,3,0,4,0.00
2014-1-13,59.0,53.5,47.8,48.2,46.3,42.8,87,77,65,30.12,29.94,4,1,9,0.00
2014-1-14,51.6,50.5,48.9,49.8,48.3,45.7,96,93,85,29.97,29.70,8,2,18,1.00
2014-1-15,57.6,50.8,46.2,48.7,44.8,42.3,89,80,67,29.94,29.73,4,1,10,0.04
2014-1-16,50.4,49.3,45.9,46.2,45.1,41.5,90,86,83,30.03,29.94,8,4,17,0.00
2014-1-17,54.1,53.1,50.4,52.2,50.5,45.7,94,91,84,30.00,29.85,13,8,21,0.11
2014-1-18,58.3,56.1,53.1,52.2,47.0,42.1,94,72,58,29.91,29.67,15,9,24,0.09
2014-1-19,58.5,54.9,50.9,54.5,51.3,47.3,96,88,74,29.70,29.53,14,6,25,0.97
2014-1-20,55.4,50.3,48.0,51.3,46.2,44.2,94,86,74,29.58,29.44,8,3,15,0.74
2014-1-21,51.8,48.4,46.0,48.0,45.2,43.7,97,89,79,29.79,29.44,5,1,6,0.05
2014-1-22,50.4,48.6,46.8,48.0,45.2,41.0,95,88,80,29.97,29.76,5,1,8,0.08
2014-1-23,53.4,50.4,46.4,46.8,44.8,40.5,89,81,73,30.00,29.85,8,4,15,0.12
2014-1-24,50.0,46.5,40.1,48.2,44.4,36.3,97,93,86,29.88,29.47,8,2,11,1.13
2014-1-25,48.9,42.8,37.8,37.2,32.5,27.0,89,68,55,29.79,29.47,11,6,16,0.00
2014-1-26,48.0,41.5,36.3,37.6,29.2,24.8,75,62,51,29.79,29.64,9,3,16,0.00
2014-1-27,48.4,45.7,40.5,44.6,37.8,22.5,89,76,40,29.73,29.35,12,4,18,0.24
2014-1-28,47.7,43.6,39.2,41.9,36.3,32.2,97,76,64,29.53,29.38,6,2,10,0.00
2014-1-29,50.7,47.7,40.3,49.5,42.1,32.2,96,82,62,29.73,29.53,10,6,20,0.46
2014-1-30,53.8,51.6,49.8,49.5,47.2,45.3,93,85,77,29.73,29.64,19,11,27,0.85
2014-1-31,55.8,54.4,52.0,53.2,51.4,48.6,94,90,84,29.79,29.64,25,11,40,4.20
2014-2-1,57.7,52.8,49.5,54.9,49.9,46.2,98,91,75,29.79,29.70,10,3,20,0.59
2014-2-2,53.2,51.4,48.9,52.9,50.4,48.0,99,97,84,29.73,29.64,5,2,13,1.55
2014-2-3,53.6,50.9,47.8,52.7,48.6,45.5,99,92,85,29.88,29.64,7,1,16,0.50
2014-2-4,52.5,50.0,47.1,49.6,47.3,43.9,95,91,85,30.00,29.85,5,1,12,0.12
2014-2-5,50.5,48.4,46.4,47.7,44.6,37.8,94,87,68,29.97,29.76,8,3,14,0.52
2014-2-6,52.0,48.0,45.7,48.2,42.9,39.4,96,83,70,30.03,29.73,10,3,20,0.27
2014-2-7,56.5,52.9,45.7,48.6,43.3,37.2,91,71,56,30.03,29.85,14,7,35,0.06
2014-2-8,56.7,51.2,49.1,50.4,46.9,42.1,95,86,70,29.91,29.79,8,3,18,0.16
2014-2-9,54.3,50.4,47.8,52.0,43.0,38.3,99,77,56,29.88,29.70,7,2,15,0.48
2014-2-10,55.0,51.3,46.9,52.2,46.5,42.3,91,84,74,29.88,29.55,20,11,34,1.13
2014-2-11,54.9,50.9,46.6,53.1,47.5,44.6,97,88,76,29.70,29.58,7,3,12,0.09
2014-2-12,54.9,49.1,45.1,46.2,43.1,39.2,96,80,64,29.88,29.58,5,1,10,0.00
2014-2-13,54.9,50.1,44.2,45.3,42.3,38.7,83,75,65,29.97,29.82,8,2,16,0.00
2014-2-14,59.9,53.8,50.0,51.6,44.7,37.0,96,73,45,30.00,29.79,8,2,12,0.00
2014-2-15,62.1,57.7,50.9,47.5,43.8,38.8,69,60,55,30.06,29.97,10,5,16,0.00
2014-2-16,64.0,59.5,55.6,48.2,46.3,43.7,75,62,55,30.03,29.94,9,4,16,0.00
2014-2-17,64.9,62.0,56.5,49.3,44.0,37.9,73,52,41,30.06,29.94,11,4,16,0.00
2014-2-18,70.3,65.9,59.2,43.0,32.4,9.5,55,31,10,30.06,29.88,15,8,26,0.00
2014-2-19,63.7,57.0,53.6,53.2,50.0,38.7,90,79,40,29.94,29.85,14,6,22,0.00
2014-2-20,53.8,51.2,48.9,51.4,47.2,39.9,97,87,71,29.91,29.85,6,2,11,0.52
2014-2-21,59.0,51.6,46.6,46.6,44.1,39.6,89,76,60,29.94,29.82,4,0,7,0.02
2014-2-22,55.9,51.9,46.9,48.9,45.3,40.1,93,78,69,30.03,29.91,8,2,13,0.07
2014-2-23,55.6,48.7,43.5,42.1,38.4,34.0,80,68,55,30.09,30.00,7,3,9,0.00
2014-2-24,57.6,50.9,44.8,41.5,39.1,33.8,79,65,42,30.09,30.03,5,1,6,0.00
2014-2-25,56.7,51.3,44.8,43.0,40.3,38.1,83,67,52,30.12,30.06,5,1,8,0.00
2014-2-26,55.6,51.5,46.4,46.6,44.4,39.7,87,77,64,30.17,30.09,6,3,14,0.02
2014-2-27,55.6,51.0,46.6,50.2,44.7,40.6,93,80,63,30.15,30.03,7,2,11,0.09
2014-2-28,50.0,47.7,45.3,47.1,43.8,39.7,93,87,74,30.06,29.67,9,3,14,0.88
2014-3-1,48.2,45.2,40.3,44.6,41.7,36.7,94,88,81,29.67,29.38,12,3,17,2.62
2014-3-2,47.3,43.6,40.6,39.7,38.1,36.1,86,81,74,29.55,29.38,6,1,10,0.00
2014-3-3,55.8,49.9,43.0,43.3,40.6,35.8,87,71,55,29.53,29.20,11,3,18,0.61
2014-3-4,47.8,45.2,43.3,43.0,41.1,37.6,94,86,77,29.47,29.14,6,2,13,0.81
2014-3-5,58.5,50.8,43.2,42.4,39.7,36.0,81,66,52,29.79,29.47,6,2,11,0.00
2014-3-6,57.7,51.6,46.8,42.4,38.0,34.2,69,60,48,30.00,29.79,8,3,12,0.00
2014-3-7,62.4,55.0,46.8,44.8,40.9,34.7,73,60,42,30.09,29.94,6,2,12,0.00
2014-3-8,55.8,51.8,46.9,41.5,37.8,34.9,68,59,51,30.23,30.06,8,2,11,0.00
2014-3-9,61.7,55.5,46.9,40.3,36.3,32.0,64,49,36,30.23,30.09,6,2,8,0.00
2014-3-10,59.4,52.1,46.9,43.5,37.4,30.6,80,59,39,30.09,29.94,5,2,10,0.00
2014-3-11,54.1,50.6,47.7,43.0,38.8,34.3,78,64,57,30.20,29.97,4,1,7,0.00
2014-3-12,61.3,54.0,48.0,37.0,32.3,26.4,65,45,27,30.32,30.20,4,1,8,0.00
2014-3-13,63.0,57.0,48.6,39.4,36.9,28.0,53,47,39,30.32,30.23,5,2,9,0.00
2014-3-14,62.8,57.4,52.0,43.0,40.2,35.6,65,53,45,30.23,30.15,6,1,11,0.00
2014-3-15,64.0,57.5,51.8,46.2,42.5,35.1,73,58,43,30.12,29.94,4,1,8,0.00
2014-3-16,66.2,59.2,50.5,48.7,42.4,36.0,72,54,46,30.06,29.94,6,1,9,0.00
2014-3-17,69.1,61.3,53.4,55.0,48.7,41.2,78,64,56,30.17,30.03,4,1,7,0.00
2014-3-18,63.9,58.2,50.9,51.3,47.7,42.3,90,69,47,30.17,30.09,9,3,14,0.00
2014-3-19,64.2,57.1,49.1,53.4,49.9,45.3,91,78,64,30.17,30.09,4,1,8,0.00
2014-3-20,69.6,61.3,52.9,55.4,51.0,45.7,90,70,56,30.20,30.15,4,1,6,0.00
2014-3-21,65.7,59.9,54.3,51.1,47.8,44.4,83,65,50,30.17,30.09,8,2,11,0.00
2014-3-22,59.9,56.7,54.0,54.9,51.0,45.1,90,82,72,30.09,29.88,8,4,15,0.05
2014-3-23,56.8,52.6,46.8,54.7,48.5,39.7,97,86,71,29.91,29.67,12,5,28,0.20
2014-3-24,51.6,46.0,42.1,41.5,38.8,35.8,85,76,62,29.82,29.64,10,2,13,0.26
2014-3-25,53.2,46.4,41.7,39.9,38.3,34.9,86,74,55,29.82,29.67,7,1,9,0.03
2014-3-26,55.0,51.2,44.1,43.2,41.1,39.4,85,69,58,29.73,29.64,6,3,13,0.02
2014-3-27,50.4,47.7,45.7,44.2,42.4,40.3,89,82,69,29.64,29.47,10,3,14,0.39
2014-3-28,58.6,52.1,44.6,46.4,43.1,39.2,88,72,61,30.06,29.64,8,3,13,0.00
2014-3-29,65.5,59.1,53.1,49.1,46.4,41.7,76,64,51,30.12,30.03,4,1,6,0.00
2014-3-30,66.0,60.0,53.1,47.1,44.0,38.1,74,57,37,30.09,30.00,5,2,12,0.00
2014-3-31,66.7,60.0,53.1,48.0,43.9,37.8,69,56,41,30.03,29.94,7,2,9,0.00
2014-4-1,64.9,57.6,50.5,50.4,46.7,39.6,88,68,47,30.03,29.97,7,2,13,0.00
2014-4-2,65.7,59.2,51.1,51.8,47.6,41.4,88,66,55,30.03,29.91,4,1,8,0.00
2014-4-3,67.5,62.3,52.9,49.5,37.0,12.9,69,43,14,29.97,29.64,9,3,14,0.00
2014-4-4,64.0,56.8,52.5,53.2,50.1,16.9,94,80,16,29.67,29.55,12,3,13,0.74
2014-4-5,59.7,56.3,52.3,50.4,48.3,44.4,83,75,63,29.79,29.64,5,2,10,0.02
2014-4-6,70.2,63.2,52.7,48.9,46.6,43.2,72,55,41,29.97,29.79,4,2,8,0.00
2014-4-7,72.7,66.1,57.0,53.2,48.7,43.5,68,54,42,30.09,29.94,4,1,8,0.00
2014-4-8,72.5,64.8,58.1,58.5,52.2,45.3,81,64,51,30.15,30.03,5,2,13,0.00
2014-4-9,67.5,61.2,54.7,56.7,52.5,47.3,85,73,63,30.06,29.94,5,1,10,0.00
2014-4-10,65.7,59.6,53.6,52.2,44.1,40.3,87,57,45,30.09,30.00,5,2,9,0.00
2014-4-11,67.6,61.2,53.6,53.2,48.8,40.6,79,65,51,30.06,29.97,5,2,8,0.00
2014-4-12,64.0,58.6,53.6,54.3,50.9,43.7,88,76,65,30.03,29.94,7,2,13,0.00
2014-4-13,67.1,60.5,54.0,52.9,51.0,49.1,85,72,57,30.00,29.91,5,2,9,0.00
2014-4-14,67.1,61.1,55.2,54.1,51.7,47.7,91,72,54,30.06,29.94,5,2,10,0.00
2014-4-15,61.3,52.4,46.8,53.2,44.9,34.3,91,76,60,29.97,29.76,10,4,13,0.07
2014-4-16,57.9,51.9,43.9,35.8,30.2,23.9,63,45,28,30.03,29.88,11,7,18,0.00
2014-4-17,57.2,51.6,43.7,34.0,31.2,27.1,61,46,34,30.00,29.85,13,6,18,0.00
2014-4-18,65.1,56.9,46.4,47.7,40.5,30.0,81,56,37,29.88,29.70,7,3,11,0.00
2014-4-19,56.5,55.1,52.7,53.4,50.6,42.8,94,85,69,29.73,29.61,12,7,21,0.13
2014-4-20,65.1,59.4,52.9,53.8,47.2,38.8,94,66,41,29.76,29.67,8,2,12,0.25
2014-4-21,70.5,63.8,54.1,54.5,49.2,41.5,80,60,45,29.82,29.64,5,2,10,0.00
2014-4-22,70.0,63.6,55.9,57.2,54.4,49.3,82,72,62,29.91,29.82,6,2,11,0.00
2014-4-23,70.7,63.7,58.5,59.2,55.0,48.7,91,74,52,29.91,29.82,6,2,9,0.04
2014-4-24,68.7,64.3,57.0,52.5,49.8,48.2,77,60,50,29.91,29.85,13,6,17,0.00
2014-4-25,73.8,64.4,57.0,56.3,52.6,48.0,86,66,51,29.91,29.79,10,3,17,0.00
2014-4-26,68.9,60.8,56.7,57.4,54.7,50.9,92,81,65,29.79,29.73,6,2,12,0.39
2014-4-27,59.4,55.8,51.4,57.7,52.9,48.9,97,90,75,29.79,29.61,10,3,15,0.57
2014-4-28,62.2,56.5,51.3,54.5,51.8,49.3,99,85,66,29.73,29.61,5,1,10,0.33
2014-4-29,62.2,57.6,51.4,51.8,48.5,44.1,92,72,57,29.82,29.67,6,2,11,0.09
2014-4-30,58.8,56.6,53.8,53.4,51.8,49.3,87,84,80,29.82,29.76,8,4,18,0.00
2014-5-1,68.2,61.1,54.9,51.6,48.7,44.6,87,65,47,29.85,29.79,6,2,11,0.00
2014-5-2,58.1,55.6,52.3,55.6,52.1,50.2,94,88,82,29.79,29.70,10,2,13,1.03
2014-5-3,55.6,51.7,48.6,52.3,48.2,45.5,96,88,74,29.73,29.58,5,1,9,1.47
2014-5-4,65.1,58.3,51.3,50.4,47.2,44.4,90,67,54,29.85,29.61,7,3,12,0.00
2014-5-5,67.1,60.6,53.6,50.4,47.7,42.8,80,63,50,30.06,29.85,4,1,10,0.00
2014-5-6,71.4,64.5,53.6,56.5,49.5,43.0,78,59,37,30.17,30.03,6,2,11,0.00
2014-5-7,70.2,63.3,55.8,52.0,48.4,42.8,74,59,46,30.15,30.03,6,2,9,0.00
2014-5-8,72.3,65.4,55.8,56.8,52.3,42.4,75,64,46,30.06,29.97,5,2,9,0.00
2014-5-9,74.5,67.7,60.1,58.3,51.9,41.5,78,58,42,30.06,29.97,5,1,9,0.00
2014-5-10,71.6,66.1,59.5,59.5,56.2,45.9,85,71,59,30.03,29.97,7,2,11,0.00
2014-5-11,70.3,65.1,59.5,58.3,54.0,47.1,82,68,57,30.00,29.88,8,3,22,0.00
2014-5-12,72.7,65.3,57.4,58.6,54.4,49.1,88,69,52,29.94,29.88,7,2,12,0.00
2014-5-13,67.5,60.2,50.5,55.2,51.2,44.4,88,73,57,29.94,29.79,11,4,17,0.04
2014-5-14,67.5,56.5,45.7,46.9,41.0,26.6,93,61,22,30.03,29.76,13,6,20,0.02
2014-5-15,69.4,60.2,54.7,44.4,37.3,14.0,62,46,12,30.03,29.88,8,4,14,0.02
2014-5-16,64.6,60.7,54.1,44.1,40.4,34.9,56,47,40,29.97,29.85,9,3,16,0.00
2014-5-17,70.9,63.5,55.8,47.7,44.4,39.2,66,51,34,30.06,29.94,6,3,10,0.00
2014-5-18,70.7,64.1,56.7,52.2,46.5,38.5,69,54,31,30.06,29.97,7,2,12,0.00
2014-5-19,64.9,61.8,58.6,54.3,49.6,37.4,80,66,37,30.03,29.94,5,1,10,0.03
2014-5-20,73.2,67.7,58.8,58.8,54.1,45.9,83,63,48,30.09,30.00,5,2,10,0.00
2014-5-21,76.3,70.9,61.9,59.0,56.1,52.9,81,60,51,30.09,30.00,8,2,12,0.00
2014-5-22,77.9,72.9,64.0,56.7,53.3,48.9,74,51,42,30.06,29.91,10,3,16,0.00
2014-5-23,72.5,66.2,61.3,61.5,56.8,50.2,93,72,52,30.03,29.85,5,2,11,0.13
2014-5-24,79.7,70.6,61.3,61.9,55.9,47.3,94,62,47,30.03,29.94,5,2,10,0.00
2014-5-25,81.0,73.1,65.1,61.7,57.2,47.1,77,58,47,30.00,29.88,4,2,8,0.00
2014-5-26,74.8,67.2,60.6,58.6,55.6,52.0,88,68,46,30.00,29.91,6,2,9,0.00
2014-5-27,66.9,63.0,57.9,57.2,53.5,50.4,89,72,59,30.00,29.91,8,4,13,0.00
2014-5-28,69.3,63.1,57.7,55.0,53.4,51.3,88,71,57,29.97,29.85,8,3,12,0.00
2014-5-29,72.1,65.0,59.4,56.7,50.8,44.2,88,62,40,29.91,29.82,7,3,13,0.00
2014-5-30,73.6,67.1,59.7,56.7,53.3,50.7,89,63,47,29.94,29.85,5,2,10,0.00
2014-5-31,70.7,63.5,59.7,58.5,54.0,50.0,82,72,60,29.97,29.85,9,1,13,0.00
2014-6-1,71.6,65.8,58.5,54.5,51.4,47.5,83,61,45,29.97,29.91,6,2,13,0.00
2014-6-2,75.2,68.6,60.8,56.3,53.0,46.0,82,59,42,30.00,29.88,5,2,8,0.00
2014-6-3,77.2,71.1,61.2,57.0,54.2,50.5,74,56,42,29.94,29.82,6,2,8,0.00
2014-6-4,79.2,71.6,62.2,56.3,50.2,43.7,73,48,31,29.97,29.82,6,2,9,0.00
2014-6-5,76.5,70.6,62.1,59.0,53.9,46.8,74,56,44,30.09,29.94,8,2,14,0.00
2014-6-6,67.5,65.8,63.7,53.6,50.2,46.9,64,57,54,30.09,30.03,2,0,3,0.00
2014-6-7,88.0,77.4,67.8,62.4,53.8,46.0,57,45,24,30.06,30.00,5,1,8,0.00
2014-6-8,89.4,82.6,74.3,62.8,59.6,51.1,55,46,39,30.06,30.00,6,1,10,0.00
2014-6-9,91.2,84.7,75.9,58.5,51.2,45.3,52,33,22,30.06,30.00,4,1,9,0.00
2014-6-10,90.7,82.3,74.5,58.8,52.2,46.2,49,36,25,30.06,30.00,4,1,8,0.00
2014-6-11,91.8,82.7,75.2,66.0,59.2,48.9,60,46,33,30.09,30.03,5,1,10,0.00
2014-6-12,92.5,80.7,73.6,68.9,60.6,53.6,61,51,31,30.09,30.00,6,2,9,0.00
2014-6-13,87.4,80.7,72.9,68.4,61.8,54.1,71,53,41,30.03,29.85,5,1,9,0.00
2014-6-14,81.5,73.0,64.6,67.6,61.9,56.8,85,69,53,29.88,29.73,10,2,18,0.48
2014-6-15,77.2,67.6,61.9,65.8,60.5,57.6,91,78,65,29.82,29.73,10,1,16,2.91
2014-6-16,74.8,66.7,58.3,62.6,59.1,52.5,92,77,57,29.91,29.76,8,2,13,1.58
2014-6-17,74.8,67.0,61.5,65.1,61.4,58.6,92,83,66,29.85,29.79,4,1,7,0.85
2014-6-18,72.7,66.2,60.4,66.7,61.0,57.0,97,84,62,29.94,29.85,5,1,8,1.18
2014-6-19,75.2,69.1,61.3,61.5,58.9,55.6,89,71,53,29.94,29.85,9,3,13,0.02
2014-6-20,79.0,72.9,65.8,61.0,57.6,54.7,73,60,47,29.97,29.91,5,2,11,0.00
2014-6-21,79.7,72.6,65.3,63.0,60.4,56.7,78,66,53,30.06,29.94,9,3,12,0.00
2014-6-22,82.8,73.4,64.9,65.5,60.2,52.2,82,64,47,30.15,30.03,7,2,14,0.00
2014-6-23,83.3,76.3,66.9,65.7,56.3,47.3,84,51,39,30.20,30.00,9,3,17,0.00
2014-6-24,83.3,76.5,71.4,63.7,50.4,29.1,77,43,15,30.12,29.82,11,4,20,0.00
2014-6-25,77.5,73.5,68.9,68.2,64.4,60.1,83,74,61,29.88,29.79,8,2,16,0.12
2014-6-26,77.7,69.9,65.8,67.5,62.3,58.8,94,78,56,29.94,29.82,4,1,7,0.54
2014-6-27,81.1,75.3,67.3,66.7,63.2,59.7,91,67,53,30.09,29.91,5,1,9,0.09
2014-6-28,81.0,76.0,68.5,68.2,62.3,57.9,81,63,52,30.09,30.03,8,2,10,0.00
2014-6-29,81.7,76.3,68.5,65.7,59.1,52.0,75,56,45,30.03,29.76,11,3,18,0.00
2014-6-30,78.6,72.6,67.3,68.9,61.0,55.0,97,69,52,29.97,29.76,12,3,15,0.00
2014-7-1,78.6,72.6,65.8,64.9,61.4,57.9,80,69,59,30.06,29.97,8,3,15,0.00
2014-7-2,81.3,74.1,65.7,63.7,59.9,56.8,77,62,48,30.17,30.03,5,2,11,0.00
2014-7-3,86.5,78.1,67.3,62.1,59.6,56.1,71,54,39,30.20,30.12,6,2,10,0.00
2014-7-4,88.5,82.0,74.1,69.4,64.4,51.6,65,56,43,30.15,29.94,7,2,11,0.00
2014-7-5,81.5,77.3,72.1,68.5,65.2,51.6,80,67,43,30.00,29.91,6,2,12,0.00
2014-7-6,86.0,79.6,71.6,68.2,64.1,59.7,72,60,45,30.00,29.94,6,2,10,0.00
2014-7-7,84.0,79.7,71.8,71.1,64.3,55.2,76,60,44,30.06,29.88,10,3,14,0.00
2014-7-8,76.5,72.0,64.9,68.9,62.6,58.5,88,73,54,29.94,29.79,10,4,19,0.00
2014-7-9,74.5,69.4,63.5,61.2,59.1,56.7,85,71,55,29.88,29.79,9,4,15,0.00
2014-7-10,74.7,66.4,62.6,60.1,56.5,52.9,85,72,52,29.82,29.67,11,3,15,0.00
2014-7-11,77.4,71.3,63.0,63.3,56.7,53.4,89,61,47,29.88,29.76,7,3,13,0.00
2014-7-12,76.3,70.9,64.6,63.5,61.2,57.9,89,72,55,29.94,29.85,8,3,13,0.24
2014-7-13,71.2,66.1,62.4,63.7,61.9,59.0,94,87,71,29.97,29.85,7,3,14,0.34
2014-7-14,74.3,70.3,65.5,64.8,62.0,60.3,89,75,66,29.94,29.88,5,1,8,0.00
2014-7-15,81.9,75.1,64.4,65.3,63.3,59.7,86,68,48,30.00,29.91,5,1,13,0.00
2014-7-16,87.8,79.4,70.9,65.3,63.2,61.3,77,59,42,30.03,29.97,5,2,8,0.00
2014-7-17,88.9,78.8,69.1,68.9,63.1,55.6,82,59,47,30.06,29.97,8,2,17,0.50
2014-7-18,89.6,82.9,73.4,67.1,63.2,55.8,66,52,39,30.06,29.97,5,2,9,0.00
2014-7-19,89.6,82.9,75.6,67.3,63.6,59.0,62,53,42,30.03,29.97,6,1,9,0.00
2014-7-20,90.5,83.2,74.8,68.2,62.6,53.6,63,50,41,30.03,29.91,9,2,15,0.00
2014-7-21,81.7,72.0,66.7,68.0,62.3,55.6,88,72,42,29.94,29.82,10,4,15,0.24
2014-7-22,73.2,70.0,66.6,67.6,64.1,60.8,91,82,72,29.79,29.70,4,1,10,0.42
2014-7-23,82.6,77.1,71.6,66.0,64.2,61.5,80,65,52,29.85,29.79,5,2,11,0.00
2014-7-24,80.1,75.2,69.4,69.1,65.3,61.9,92,72,58,29.91,29.85,5,2,10,0.00
2014-7-25,84.4,76.7,69.4,70.0,66.3,62.8,88,71,54,29.94,29.91,5,2,10,0.00
2014-7-26,82.4,75.2,70.9,69.6,64.9,60.3,89,71,59,29.94,29.79,9,1,14,0.02
2014-7-27,82.6,76.3,69.4,66.9,65.1,60.6,91,69,54,29.91,29.79,5,2,9,0.04
2014-7-28,81.9,76.5,69.8,69.8,66.8,64.2,91,73,59,29.94,29.85,5,2,8,0.00
2014-7-29,79.3,76.2,71.8,69.8,67.3,63.7,86,74,65,29.85,29.70,8,3,15,0.00
2014-7-30,68.7,66.6,65.5,65.7,64.5,63.9,95,93,90,29.73,29.70,7,3,7,0.00
2014-7-31,80.8,75.8,70.9,67.6,65.9,62.4,82,72,58,29.85,29.79,5,2,9,0.00
2014-8-1,85.5,78.4,70.3,69.4,66.9,64.0,87,69,56,29.85,29.79,4,1,8,0.00
2014-8-2,85.3,77.4,71.4,71.2,68.2,63.5,96,75,53,29.94,29.82,6,2,10,0.00
2014-8-3,83.1,76.4,69.8,66.2,64.0,61.5,85,66,53,29.97,29.85,5,2,9,0.07
2014-8-6,76.3,74.2,72.7,59.2,58.4,57.4,60,58,55,29.85,29.82,4,2,6,0.00
2014-8-7,85.5,76.0,67.6,65.3,60.5,57.0,78,60,42,29.94,29.82,5,1,8,0.00
2014-8-8,88.0,80.4,72.0,66.2,63.8,59.5,75,58,43,30.00,29.91,4,1,9,0.00
2014-8-9,84.4,78.9,71.1,68.5,65.8,61.0,82,65,52,30.03,29.97,5,1,8,0.00
2014-8-10,86.7,79.7,70.3,69.4,65.8,62.2,88,64,48,30.03,29.97,5,2,12,0.00
2014-8-11,89.2,82.3,72.5,63.3,59.1,53.4,69,47,31,30.00,29.91,5,2,10,0.00
2014-8-12,87.4,77.7,70.2,73.4,65.2,52.9,87,66,45,29.97,29.88,8,2,12,0.00
2014-8-13,85.6,79.8,73.9,72.1,70.4,67.6,90,74,59,29.91,29.79,8,4,14,0.00
2014-8-14,78.3,73.7,68.4,71.1,63.8,61.3,94,72,59,29.94,29.82,8,3,13,0.00
2014-8-15,68.5,68.5,68.4,63.1,62.4,61.9,83,81,80,29.94,29.91,1,0,2,0.00
2014-8-17,68.4,68.3,68.2,59.4,59.3,59.2,73,73,73,29.97,29.97,0,0,0,0.00
2014-8-18,73.4,70.8,67.5,60.8,57.2,50.2,65,62,54,30.00,29.97,3,1,4,0.00
2014-8-19,81.3,75.5,66.4,61.7,58.3,50.2,68,56,45,29.97,29.82,12,3,16,0.00
2014-8-20,82.6,79.1,74.7,70.5,67.1,65.7,86,68,59,29.97,29.94,5,2,15,0.00
2014-8-21,80.8,77.0,72.9,73.9,69.7,65.3,94,79,70,29.97,29.91,8,3,13,0.00
2014-8-22,81.0,75.1,69.8,69.3,65.8,63.0,82,74,58,30.00,29.94,3,1,6,0.00
2014-8-23,81.3,75.1,67.8,68.4,64.9,60.1,89,71,57,30.00,29.91,10,3,16,0.00
2014-8-24,68.5,67.8,67.5,62.8,61.7,61.0,84,81,79,30.00,29.97,2,0,4,0.00
2014-8-25,73.6,70.4,68.5,61.9,60.4,57.4,73,71,67,30.03,30.00,1,0,2,0.00
2014-8-26,79.2,77.1,70.0,67.3,65.8,61.5,75,68,66,30.00,29.94,5,3,8,0.00
2014-8-27,73.2,72.0,70.0,62.8,61.5,60.3,72,70,67,29.94,29.91,4,2,8,0.00
2014-8-30,85.6,81.4,74.1,67.8,65.0,62.6,69,58,52,29.97,29.94,4,2,6,0.00
2014-8-31,83.5,76.6,71.1,68.5,65.4,62.2,90,70,59,29.97,29.82,6,2,9,0.00
2014-9-1,71.1,62.6,59.2,66.9,57.6,53.1,95,84,68,29.82,29.55,13,5,23,0.33
2014-9-2,78.1,67.2,60.1,61.5,58.1,55.9,90,74,55,29.76,29.58,8,4,14,0.00
2014-9-3,76.8,66.9,60.8,63.5,59.4,56.3,90,78,60,29.85,29.73,6,1,9,0.02
2014-9-4,78.8,69.6,63.9,67.3,62.7,59.5,91,79,63,29.88,29.79,4,1,8,0.03
2014-9-5,81.5,71.6,65.5,65.8,63.3,60.6,89,76,52,29.88,29.79,5,1,8,0.00
2014-9-6,80.6,71.3,64.4,65.5,62.9,60.6,91,76,54,29.85,29.76,5,1,8,0.00
2014-9-7,82.8,72.3,65.1,63.0,60.8,58.1,89,69,45,29.97,29.85,6,2,11,0.00
2014-9-8,84.4,73.8,67.3,65.3,62.2,59.2,82,68,49,30.06,29.94,5,1,10,0.00
2014-9-9,82.9,73.2,67.3,69.3,66.2,62.8,92,80,58,30.06,29.94,4,1,10,0.00
2014-9-10,80.6,71.3,66.6,69.1,65.5,60.6,94,83,57,30.00,29.82,9,2,17,0.36
2014-9-11,76.5,69.7,64.4,68.9,65.3,60.6,95,86,73,29.88,29.76,5,1,14,0.50
2014-9-12,75.7,70.4,67.5,66.0,64.2,61.3,92,81,64,29.88,29.76,9,3,19,0.00
2014-9-13,78.6,69.4,61.5,65.8,58.3,47.7,96,71,34,29.97,29.85,4,1,9,0.00
2014-9-14,80.4,70.3,63.3,61.2,55.1,50.0,83,60,43,29.97,29.91,4,1,7,0.00
2014-9-15,78.3,69.5,63.7,66.6,62.9,59.5,92,81,54,30.03,29.94,4,1,8,0.00
2014-9-16,79.5,71.2,65.5,66.6,63.4,61.5,92,77,59,29.97,29.88,4,1,9,0.00
2014-9-17,78.6,70.6,65.1,65.1,62.3,58.6,86,76,62,30.00,29.91,4,1,7,0.00
2014-9-18,80.1,72.2,65.8,64.8,60.3,53.1,84,67,45,30.03,29.91,5,1,10,0.00
2014-9-19,81.1,76.6,74.5,72.1,63.2,50.5,91,65,41,30.15,29.97,11,4,16,0.00
2014-9-20,86.7,77.2,73.6,72.3,70.0,68.0,92,80,61,30.12,30.00,6,1,9,0.00
2014-9-21,81.3,74.4,70.2,71.6,69.1,65.5,95,84,66,30.06,29.94,9,2,14,0.00
2014-9-22,77.0,72.4,70.2,70.7,68.4,65.5,98,88,69,29.97,29.79,7,2,14,0.00
2014-9-23,79.3,70.1,62.6,67.6,60.3,50.0,99,73,48,29.97,29.79,8,2,11,0.00
2014-9-24,76.1,67.3,63.0,62.1,55.4,48.6,86,67,49,30.03,29.94,4,1,8,0.03
2014-9-25,71.2,66.4,62.2,66.2,62.2,58.3,95,87,73,30.00,29.91,8,0,13,0.17
2014-9-26,76.3,66.9,59.9,63.9,57.4,48.0,93,73,40,30.12,29.97,4,1,6,0.00
2014-9-27,79.7,68.2,61.3,60.6,55.6,50.2,84,66,41,30.26,30.09,4,1,6,0.00
2014-9-28,78.1,67.9,62.8,62.6,58.8,52.3,85,73,49,30.29,30.23,4,1,6,0.00
2014-9-29,75.6,67.5,62.6,64.2,59.6,54.3,91,77,62,30.35,30.26,5,1,9,0.00
2014-9-30,77.7,67.7,61.0,60.8,57.7,53.1,84,71,48,30.32,30.23,4,1,6,0.00
2014-10-1,77.0,68.0,62.6,64.9,60.8,56.8,97,79,59,30.26,30.12,7,1,16,1.09
2014-10-2,72.9,66.4,62.2,66.0,62.7,59.5,96,88,74,30.15,30.06,7,1,9,1.18
2014-10-3,77.0,65.9,61.0,64.2,60.6,55.9,96,84,60,30.12,30.03,11,0,18,1.81
2014-10-4,74.8,66.3,60.6,64.0,60.6,57.2,94,83,62,30.06,29.91,3,0,5,0.00
2014-10-5,73.8,65.9,61.2,62.8,58.3,52.7,88,77,66,29.94,29.88,3,0,6,0.00
2014-10-6,75.6,66.3,60.3,60.3,55.7,51.6,84,70,53,29.97,29.88,4,1,8,0.00
2014-10-7,74.7,66.7,60.8,62.6,59.0,56.3,90,77,60,30.12,29.97,5,2,11,0.00
2014-10-8,75.7,69.1,65.3,65.1,61.3,55.2,85,77,64,30.15,30.03,6,3,14,0.00
2014-10-9,78.1,71.7,66.7,61.3,54.4,48.7,73,55,48,30.09,30.03,5,2,11,0.00
2014-10-10,80.8,71.5,67.3,63.3,53.7,48.0,79,54,45,30.12,30.03,4,1,7,0.00
2014-10-11,78.4,70.9,64.9,64.4,55.3,47.7,88,59,42,30.06,29.97,4,1,11,0.00
2014-10-12,77.5,70.8,65.8,68.4,64.7,60.4,89,82,69,30.06,29.97,5,2,10,0.00
2014-10-13,78.8,71.1,65.5,65.3,62.9,58.3,91,76,58,30.03,29.88,8,2,14,0.00
2014-10-14,80.1,73.4,67.5,66.0,61.0,54.1,84,67,48,29.97,29.76,11,4,19,0.00
2014-10-15,77.9,74.4,69.8,69.1,63.5,56.7,92,70,50,29.91,29.73,12,4,21,0.00
2014-10-16,73.2,69.4,67.5,69.4,65.2,62.6,98,87,74,30.06,29.88,7,2,16,0.00
2014-10-17,75.7,69.9,66.6,66.9,64.3,60.8,95,83,67,30.15,30.03,5,1,11,0.00
2014-10-18,78.6,70.5,65.3,67.3,62.8,60.6,89,77,60,30.23,30.12,6,1,9,0.00
2014-10-19,78.8,70.9,66.4,66.6,63.1,60.3,90,77,63,30.26,30.17,4,1,8,0.00
2014-10-20,77.0,68.8,64.6,66.0,62.4,58.8,94,81,57,30.23,30.06,4,1,8,0.00
2014-10-21,71.8,66.6,63.3,66.6,63.5,-1.3,96,91,6,30.09,29.76,8,1,13,0.00
2014-10-22,68.4,62.1,48.4,66.6,49.2,29.7,96,67,28,29.79,29.58,15,6,23,0.00
2014-10-23,60.8,53.5,46.6,39.4,31.1,23.0,69,44,31,29.82,29.67,12,6,20,0.00
2014-10-24,65.1,54.9,47.3,48.2,43.2,38.8,79,66,50,29.94,29.70,13,4,18,0.00
2014-10-25,66.4,56.2,49.1,48.2,44.7,42.3,79,66,48,30.06,29.91,6,2,11,0.00
2014-10-26,63.7,57.7,52.7,53.2,49.4,46.2,84,74,63,30.15,30.03,3,0,6,0.00
2014-10-27,64.9,57.6,52.9,52.2,47.4,44.4,85,70,51,30.15,30.09,3,0,8,0.00
2014-10-28,65.3,56.5,52.7,48.2,45.3,42.8,80,67,50,30.12,30.00,2,0,4,0.00
2014-10-29,63.3,57.2,52.2,51.3,47.6,43.0,79,71,62,30.09,30.00,3,0,6,0.00
2014-10-30,64.8,58.4,54.5,49.5,45.0,36.9,79,62,41,30.15,30.06,6,2,11,0.00
2014-10-31,65.7,56.4,50.0,45.0,39.0,34.0,69,53,37,30.20,30.12,4,1,6,0.00
2014-11-1,67.3,58.3,52.7,52.3,48.1,41.0,82,69,53,30.20,30.12,4,1,8,0.00
2014-11-2,67.3,58.2,52.9,51.8,46.5,42.6,87,67,43,30.20,30.09,3,0,4,0.00
2014-11-3,64.8,59.2,53.4,55.8,52.4,49.8,89,79,67,30.15,30.03,7,2,15,0.00
2014-11-4,65.8,61.5,58.6,58.8,55.1,50.4,87,80,71,30.06,29.73,16,8,27,0.16
2014-11-5,66.7,65.0,63.1,64.8,60.4,56.8,94,86,80,29.76,29.64,14,10,26,0.04
2014-11-6,66.4,61.6,57.9,63.7,58.9,55.4,97,91,83,29.79,29.67,11,2,18,3.08
2014-11-7,65.3,60.8,57.7,60.4,57.1,53.8,98,88,74,29.79,29.61,14,3,26,4.05
2014-11-8,68.7,62.2,57.0,59.0,56.4,54.1,93,82,62,29.85,29.73,5,2,10,0.00
2014-11-9,67.1,62.0,59.5,55.8,52.0,49.5,78,70,60,30.00,29.88,5,2,10,0.00
2014-11-10,67.1,62.2,58.3,56.1,50.3,46.0,78,65,54,30.06,29.94,8,4,16,0.00
2014-11-11,66.0,62.8,57.9,56.3,52.5,47.3,76,69,60,30.00,29.67,9,4,14,0.00
2014-11-12,64.0,58.9,54.9,58.3,53.5,48.9,91,83,59,29.70,29.61,8,2,17,0.61
2014-11-13,60.3,57.0,55.2,55.4,53.6,51.4,94,89,80,29.88,29.61,4,1,7,0.45
2014-11-14,66.2,58.1,53.2,56.7,53.1,48.7,91,84,66,29.94,29.85,4,1,5,0.00
2014-11-15,61.7,58.6,56.3,59.2,53.4,48.7,98,83,73,29.94,29.70,12,5,28,1.82
2014-11-16,62.6,56.9,52.2,56.5,51.0,47.5,94,81,63,29.85,29.73,7,3,16,0.59
2014-11-17,60.6,56.9,52.9,58.3,52.4,49.3,94,85,75,29.85,29.64,12,4,26,0.41
2014-11-18,59.2,55.7,52.9,52.3,50.1,48.4,92,82,69,29.91,29.73,9,4,14,0.00
2014-11-19,60.8,56.4,53.4,51.8,48.1,45.3,87,74,60,30.15,29.88,6,3,11,0.00
2014-11-20,62.6,56.7,51.1,48.9,45.8,41.5,80,67,55,30.20,30.12,5,1,8,0.00
2014-11-21,61.7,54.7,49.5,46.6,42.5,39.2,77,64,51,30.20,30.12,3,1,6,0.00
2014-11-22,62.4,57.0,53.1,52.7,48.0,41.5,87,72,63,30.23,30.15,4,1,5,0.00
2014-11-23,62.4,56.8,54.1,54.1,49.7,46.6,86,77,68,30.26,30.17,2,0,4,0.00
2014-11-24,64.6,57.9,54.0,52.2,49.1,45.3,85,73,61,30.23,30.12,3,0,4,0.00
2014-11-25,63.9,57.5,53.6,55.4,51.9,48.6,90,82,68,30.15,30.03,3,0,6,0.00
2014-11-26,61.2,58.3,56.1,57.9,55.6,53.6,96,91,87,30.06,29.91,5,1,9,1.26
2014-11-27,64.8,59.4,55.4,57.2,54.7,51.8,95,85,75,29.97,29.88,6,2,13,0.03
2014-11-28,66.2,62.8,55.4,54.1,50.4,45.1,85,65,53,29.91,29.76,12,6,28,0.00
2014-11-29,67.8,63.3,60.8,57.4,53.5,46.6,84,71,48,29.91,29.79,11,6,20,0.02
2014-11-30,72.5,68.9,62.4,57.0,49.3,40.1,82,51,31,29.85,29.67,13,8,21,0.09
2014-12-1,64.4,60.3,52.9,58.3,54.0,48.2,89,80,63,29.70,29.55,15,4,23,0.56
2014-12-2,60.3,54.8,50.7,55.2,49.5,46.9,94,83,67,29.64,29.53,7,3,16,1.63
2014-12-3,59.2,57.2,54.7,56.7,54.4,51.4,94,91,86,29.85,29.55,12,4,20,1.00
2014-12-4,82.0,55.9,55.4,67.6,51.4,49.6,88,85,62,29.94,29.82,5,1,7,0.47
2014-12-5,56.1,53.5,49.8,51.6,48.6,45.1,91,84,78,29.91,29.85,10,3,14,0.39
2014-12-6,55.4,52.5,50.9,49.8,47.7,45.3,91,84,71,29.94,29.88,6,2,13,0.23
2014-12-7,54.3,50.2,46.4,49.6,45.3,41.2,89,84,75,29.91,29.82,5,1,8,0.24
2014-12-8,52.2,46.2,42.1,45.0,40.6,36.5,88,81,71,29.88,29.79,5,2,8,0.00
2014-12-9,55.0,48.7,44.2,42.8,37.8,32.9,83,67,51,29.94,29.70,7,2,14,0.00
2014-12-10,53.1,45.9,41.2,40.5,35.2,32.7,78,67,56,30.03,29.91,7,2,10,0.00
2014-12-11,53.6,48.5,43.9,45.9,41.2,31.5,87,76,56,30.03,29.94,4,1,11,0.00
2014-12-12,55.0,49.3,44.2,47.1,36.5,27.9,83,62,46,30.17,30.00,5,1,8,0.00
2014-12-13,59.4,54.4,51.6,49.1,46.6,44.1,83,75,62,30.20,30.12,7,2,14,0.00
2014-12-14,55.9,54.6,53.2,49.3,47.0,44.1,84,76,68,30.17,30.12,8,3,12,0.00
2014-12-15,57.2,55.3,54.1,50.2,47.5,44.1,85,75,67,30.15,29.97,10,6,18,0.07
2014-12-16,56.1,52.0,48.7,49.3,45.7,42.4,93,79,69,30.00,29.67,10,4,17,0.85
2014-12-17,57.6,51.7,47.7,48.6,45.2,43.3,88,79,64,29.91,29.73,4,1,10,0.07
2014-12-18,58.8,52.7,49.6,48.4,44.5,39.0,84,74,63,30.17,29.88,3,1,5,0.00
2014-12-19,57.9,52.4,48.4,49.1,43.0,38.1,89,71,56,30.23,30.15,2,1,4,0.00
2014-12-20,55.8,52.8,49.5,50.4,48.0,45.3,90,84,73,30.20,30.09,3,1,9,0.00
2014-12-21,60.3,52.7,49.3,49.5,46.5,43.3,90,80,58,30.41,30.12,6,2,9,0.00
2014-12-22,58.3,51.3,48.0,44.6,41.6,38.8,85,70,51,30.44,30.35,4,1,6,0.00
2014-12-23,54.1,51.1,48.0,45.1,43.3,41.5,86,75,66,30.41,30.32,6,2,9,0.00
2014-12-24,52.7,50.7,49.3,44.2,41.1,39.7,77,70,65,30.35,30.23,5,2,8,0.00
2014-12-25,55.0,51.6,50.0,46.6,44.3,42.1,84,76,63,30.26,30.03,4,1,5,0.00
2014-12-26,52.9,48.2,40.3,46.4,37.5,19.9,87,68,44,30.09,29.94,9,3,14,0.00
2014-12-27,50.4,43.7,37.4,49.1,29.0,16.7,96,59,30,30.09,29.47,12,4,20,0.48
2014-12-28,50.5,41.3,34.7,48.6,36.7,28.4,93,84,74,29.64,29.35,11,3,17,0.13
2014-12-29,41.0,36.4,33.4,28.2,20.9,12.6,77,54,34,30.09,29.61,13,7,22,0.00
2014-12-30,34.7,31.9,27.0,19.8,10.9,-8.5,57,42,15,30.15,30.03,14,7,23,0.00
2014-12-31,34.9,29.2,26.2,19.8,15.5,3.4,67,54,28,30.15,29.97,15,7,24,0.00
2015-1-1,46.2,37.2,30.6,21.6,16.5,4.1,59,44,18,30.32,30.12,11,5,17,0.00
2015-1-2,50.4,43.6,36.7,36.7,29.7,22.1,69,59,44,30.41,30.29,6,2,11,0.00